Time;durP1;ratioP1;P1;durP2;ratioP2;P2;SDS_P1;SDS_P2;PMS_P1;PMS_P2;Temp;Humidity;BMP_temperature;BMP_pressure;BME280_temperature;BME280_humidity;BME280_pressure;Samples;Min_cycle;Max_cycle;Signal;HPM_P1;HPM_P2
2022/11/19 00:00:53;;;;;;;11.63;8.20;;;;;;;-3.74;76.95;99555.09;4986124;28;20098;-66
2022/11/19 00:03:21;;;;;;;11.90;7.97;;;;;;;-3.72;77.58;99561.03;4986322;28;20227;-66
2022/11/19 00:05:48;;;;;;;12.27;8.02;;;;;;;-3.68;77.12;99573.88;4984651;28;20034;-64
2022/11/19 00:08:17;;;;;;;11.85;7.90;;;;;;;-3.61;76.66;99574.06;4985551;28;20034;-66
2022/11/19 00:10:44;;;;;;;10.77;7.93;;;;;;;-3.52;77.44;99560.06;4985905;28;20023;-66
2022/11/19 00:13:12;;;;;;;10.50;8.25;;;;;;;-3.52;76.92;99562.59;4985983;28;20030;-66
2022/11/19 00:15:37;;;;;;;11.18;8.00;;;;;;;-3.48;77.45;99555.94;4985622;28;20030;-66
2022/11/19 00:18:05;;;;;;;14.63;8.88;;;;;;;-3.52;76.31;99566.78;4986001;28;20054;-67
2022/11/19 00:20:31;;;;;;;15.82;9.35;;;;;;;-3.45;76.69;99565.31;4985857;28;20057;-67
2022/11/19 00:22:57;;;;;;;13.85;8.75;;;;;;;-3.49;76.31;99559.31;4986674;28;20041;-67
2022/11/19 00:25:26;;;;;;;13.85;8.95;;;;;;;-3.59;76.96;99540.41;4985861;28;20027;-67
2022/11/19 00:27:51;;;;;;;21.27;10.10;;;;;;;-3.44;75.82;99562.81;4984491;28;20035;-67
2022/11/19 00:30:18;;;;;;;16.80;8.85;;;;;;;-3.46;76.22;99559.41;4985886;28;20037;-66
2022/11/19 00:32:44;;;;;;;12.98;8.68;;;;;;;-3.50;76.49;99567.69;4985632;28;20030;-66
2022/11/19 00:35:10;;;;;;;15.77;8.80;;;;;;;-3.48;76.15;99566.06;4985664;28;20030;-65
2022/11/19 00:37:36;;;;;;;15.70;9.68;;;;;;;-3.48;76.12;99573.66;4985567;28;20031;-65
2022/11/19 00:40:02;;;;;;;14.02;9.02;;;;;;;-3.50;75.83;99578.66;4985429;28;20453;-65
2022/11/19 00:42:29;;;;;;;14.10;8.52;;;;;;;-3.46;76.84;99574.59;4985318;28;20026;-65
2022/11/19 00:44:54;;;;;;;9.70;7.82;;;;;;;-3.68;76.37;99580.59;4985280;28;20050;-65
2022/11/19 00:47:20;;;;;;;13.32;7.55;;;;;;;-3.48;76.93;99584.66;4985566;28;20355;-66
2022/11/19 00:49:45;;;;;;;10.00;7.80;;;;;;;-3.45;76.92;99581.34;4984680;28;20363;-65
2022/11/19 00:52:11;;;;;;;9.95;7.35;;;;;;;-3.43;76.99;99592.41;4985169;28;20130;-67
2022/11/19 00:54:37;;;;;;;11.43;8.05;;;;;;;-3.41;76.25;99588.22;4983776;28;20073;-67
2022/11/19 00:57:02;;;;;;;12.00;7.57;;;;;;;-3.44;75.88;99590.66;4985380;28;20027;-66
2022/11/19 00:59:28;;;;;;;9.70;6.60;;;;;;;-3.46;76.22;99584.72;4984837;28;20038;-66
2022/11/19 01:01:54;;;;;;;11.23;7.63;;;;;;;-3.48;76.44;99591.38;4985110;28;20031;-66
2022/11/19 01:04:19;;;;;;;11.63;7.35;;;;;;;-3.61;76.69;99602.75;4984136;28;20058;-67
2022/11/19 01:06:45;;;;;;;10.07;7.72;;;;;;;-3.48;76.79;99601.50;4975838;28;20023;-66
2022/11/19 01:09:10;;;;;;;8.32;6.97;;;;;;;-3.53;76.13;99613.16;4984647;28;20327;-66
2022/11/19 01:11:37;;;;;;;11.23;7.97;;;;;;;-3.58;75.95;99619.72;4984724;28;20030;-66
2022/11/19 01:14:04;;;;;;;12.95;7.30;;;;;;;-3.56;76.67;99629.09;4983742;28;20034;-66
2022/11/19 01:16:38;;;;;;;8.20;6.90;;;;;;;-3.62;76.25;99615.34;4983177;28;20361;-66
2022/11/19 01:19:06;;;;;;;8.90;7.57;;;;;;;-3.44;76.99;99627.78;4984713;28;20034;-66
2022/11/19 01:21:33;;;;;;;10.10;7.22;;;;;;;-3.48;76.73;99629.34;4984454;28;20327;-65
2022/11/19 01:23:59;;;;;;;9.63;6.97;;;;;;;-3.50;75.92;99613.25;4984718;28;20038;-66
2022/11/19 01:26:26;;;;;;;9.43;7.10;;;;;;;-3.45;75.95;99634.50;4984605;28;20030;-66
2022/11/19 01:28:51;;;;;;;9.05;6.68;;;;;;;-3.42;76.07;99637.16;4984501;28;20098;-65
2022/11/19 01:31:28;;;;;;;9.95;7.18;;;;;;;-3.55;75.44;99627.41;4984525;28;20042;-66
2022/11/19 01:33:54;;;;;;;11.07;7.20;;;;;;;-3.41;76.00;99643.09;4984275;28;20023;-65
2022/11/19 01:36:25;;;;;;;8.30;7.15;;;;;;;-3.49;74.89;99637.78;4997552;28;20054;-66
2022/11/19 01:38:51;;;;;;;9.53;6.87;;;;;;;-3.45;75.89;99643.78;4994481;28;20129;-66
2022/11/19 01:41:18;;;;;;;9.75;7.28;;;;;;;-3.52;75.63;99630.03;4989041;28;20077;-65
2022/11/19 01:43:47;;;;;;;9.73;7.03;;;;;;;-3.33;76.00;99647.59;5003183;28;20353;-65
2022/11/19 01:46:16;;;;;;;9.70;7.20;;;;;;;-3.74;75.30;99596.41;4984449;28;20034;-65
2022/11/19 01:49:04;;;;;;;11.35;7.78;;;;;;;-3.44;76.21;99637.91;4984090;28;20070;-65
2022/11/19 01:51:53;;;;;;;10.27;7.47;;;;;;;-3.38;75.62;99654.16;4998791;28;20089;-65
2022/11/19 01:54:28;;;;;;;9.45;6.90;;;;;;;-3.49;75.96;99636.09;4990673;28;20049;-66
2022/11/19 01:56:59;;;;;;;11.00;7.80;;;;;;;-3.34;75.27;99675.38;4984253;28;20094;-67
2022/11/19 01:59:27;;;;;;;8.65;6.68;;;;;;;-3.30;75.89;99674.69;4983629;28;20038;-65
2022/11/19 02:01:52;;;;;;;10.65;8.05;;;;;;;-3.35;76.02;99663.53;4984227;28;20043;-65
2022/11/19 02:04:19;;;;;;;10.98;7.22;;;;;;;-3.34;76.55;99668.63;4984136;28;20031;-65
2022/11/19 02:06:46;;;;;;;11.98;6.90;;;;;;;-3.28;75.87;99685.72;4975197;28;20066;-66
2022/11/19 02:09:12;;;;;;;8.23;6.35;;;;;;;-3.33;76.42;99675.44;4976584;28;20029;-66
2022/11/19 02:12:09;;;;;;;8.48;6.90;;;;;;;-3.24;76.30;99685.00;4983988;28;20022;-65
2022/11/19 02:14:37;;;;;;;10.25;7.82;;;;;;;-3.22;76.37;99690.13;4990262;28;20377;-65
2022/11/19 02:17:21;;;;;;;11.23;7.05;;;;;;;-3.18;76.11;99686.91;5000735;28;20082;-65
2022/11/19 02:20:08;;;;;;;9.65;7.53;;;;;;;-3.15;75.79;99697.13;4984320;28;20030;-64
2022/11/19 02:22:54;;;;;;;9.38;6.80;;;;;;;-3.20;75.50;99693.59;5003475;28;20069;-64
2022/11/19 02:25:58;;;;;;;8.27;6.32;;;;;;;-3.29;75.26;99684.00;4967814;28;20082;-64
2022/11/19 02:28:33;;;;;;;8.88;6.68;;;;;;;-3.37;75.98;99686.25;5009573;28;20027;-65
2022/11/19 02:31:05;;;;;;;9.30;6.97;;;;;;;-3.19;75.81;99701.25;4983893;28;20026;-64
2022/11/19 02:34:00;;;;;;;8.27;6.93;;;;;;;-3.19;75.97;99697.81;4983800;28;20038;-64
2022/11/19 02:36:55;;;;;;;9.93;7.22;;;;;;;-3.31;74.77;99701.69;4996204;28;20034;-65
2022/11/19 02:39:37;;;;;;;6.93;6.22;;;;;;;-3.22;75.62;99697.72;4990526;28;20030;-65
2022/11/19 02:42:05;;;;;;;10.38;7.65;;;;;;;-3.20;75.22;99696.13;4983403;28;20031;-66
2022/11/19 02:44:57;;;;;;;9.80;6.85;;;;;;;-3.38;74.95;99679.47;4983681;28;20026;-64
2022/11/19 02:47:40;;;;;;;9.63;6.95;;;;;;;-3.19;76.21;99698.69;4987469;28;20042;-64
2022/11/19 02:50:15;;;;;;;9.13;7.57;;;;;;;-3.33;75.53;99683.03;4987131;28;20129;-66
2022/11/19 02:52:44;;;;;;;8.90;7.35;;;;;;;-3.38;75.99;99679.47;4987181;28;20124;-65
2022/11/19 02:55:15;;;;;;;9.60;7.43;;;;;;;-3.40;75.03;99667.59;4987172;28;20037;-65
2022/11/19 02:57:57;;;;;;;9.95;7.18;;;;;;;-3.38;76.46;99669.34;4987176;28;20053;-64
2022/11/19 03:06:04;;;;;;;10.18;7.47;;;;;;;-3.26;75.19;99678.16;4984326;28;20045;-64
2022/11/19 03:08:29;;;;;;;14.00;8.27;;;;;;;-3.23;76.42;99681.69;4973240;28;20053;-64
2022/11/19 03:11:17;;;;;;;9.90;7.80;;;;;;;-3.15;76.75;99695.47;4986703;28;20026;-66
2022/11/19 03:16:42;;;;;;;11.00;7.70;;;;;;;-3.32;76.81;99684.75;4967417;28;20035;-65
2022/11/19 03:19:29;;;;;;;12.27;8.40;;;;;;;-3.35;77.40;99699.84;4980304;28;20304;-66
2022/11/19 03:22:09;;;;;;;9.68;7.72;;;;;;;-3.38;77.62;99692.13;4984514;28;20034;-64
2022/11/19 03:24:40;;;;;;;11.05;8.05;;;;;;;-3.48;77.48;99682.50;4989929;28;20133;-66
2022/11/19 03:27:41;;;;;;;10.95;8.20;;;;;;;-3.44;77.05;99704.59;4986432;28;20313;-64
2022/11/19 03:30:08;;;;;;;11.02;7.80;;;;;;;-3.33;77.85;99708.34;4986525;28;20042;-65
2022/11/19 03:32:46;;;;;;;9.70;7.00;;;;;;;-3.38;77.80;99693.81;4986599;28;20034;-67
2022/11/19 03:35:21;;;;;;;13.30;9.10;;;;;;;-3.37;77.36;99741.13;4985988;28;20073;-65
2022/11/19 03:37:51;;;;;;;9.82;7.85;;;;;;;-3.32;77.67;99721.88;4994197;28;20043;-66
2022/11/19 03:40:19;;;;;;;9.75;7.97;;;;;;;-3.37;77.51;99728.44;4972783;28;20066;-65
2022/11/19 03:42:49;;;;;;;10.73;7.60;;;;;;;-3.36;77.79;99710.78;4986218;28;20042;-65
2022/11/19 03:45:21;;;;;;;10.98;8.48;;;;;;;-3.34;77.38;99731.09;4986247;28;20030;-65
2022/11/19 03:47:49;;;;;;;12.40;8.65;;;;;;;-3.31;77.41;99727.00;4984670;28;20098;-66
2022/11/19 03:50:18;;;;;;;13.70;8.57;;;;;;;-3.53;78.21;99705.13;4986364;28;20209;-65
2022/11/19 03:52:43;;;;;;;11.15;7.90;;;;;;;-3.40;77.75;99723.28;4984679;28;20046;-66
2022/11/19 03:55:10;;;;;;;11.68;8.20;;;;;;;-3.45;77.58;99732.38;4985947;28;20076;-65
2022/11/19 03:57:35;;;;;;;12.52;8.55;;;;;;;-3.34;77.83;99731.94;4985326;28;20168;-64
2022/11/19 04:00:01;;;;;;;12.35;7.93;;;;;;;-3.21;77.80;99737.44;4985626;28;20295;-66
2022/11/19 04:02:27;;;;;;;11.35;8.50;;;;;;;-3.31;77.57;99736.25;4985231;28;20069;-65
2022/11/19 04:04:53;;;;;;;10.25;7.90;;;;;;;-3.26;77.36;99733.88;4972275;28;20035;-65
2022/11/19 04:07:20;;;;;;;9.93;7.90;;;;;;;-3.30;77.26;99745.59;4985624;28;20035;-65
2022/11/19 04:09:46;;;;;;;10.73;7.65;;;;;;;-3.25;77.32;99745.75;4979107;28;20110;-65
2022/11/19 04:12:21;;;;;;;11.85;8.55;;;;;;;-3.31;77.90;99728.66;4986227;28;20039;-63
2022/11/19 04:14:47;;;;;;;11.05;7.95;;;;;;;-3.30;76.98;99743.06;4985715;28;20031;-64
2022/11/19 04:17:13;;;;;;;11.48;8.27;;;;;;;-3.27;76.74;99749.91;4985773;28;20038;-64
2022/11/19 04:19:39;;;;;;;14.48;9.02;;;;;;;-3.23;77.17;99749.19;4985839;28;20311;-64
2022/11/19 04:22:05;;;;;;;9.77;7.43;;;;;;;-3.27;77.47;99760.88;4985719;28;20045;-64
2022/11/19 04:24:31;;;;;;;11.23;7.93;;;;;;;-3.20;77.51;99767.88;4983286;28;20375;-64
2022/11/19 04:26:56;;;;;;;12.15;8.63;;;;;;;-3.14;77.65;99767.22;4977152;28;20054;-65
2022/11/19 04:29:22;;;;;;;11.18;8.18;;;;;;;-3.09;76.98;99765.75;4984711;28;20104;-65
2022/11/19 04:31:48;;;;;;;11.63;8.38;;;;;;;-3.10;76.63;99758.94;4983954;28;20065;-66
2022/11/19 04:34:13;;;;;;;11.48;7.88;;;;;;;-3.04;77.70;99774.34;4984909;28;20027;-66
2022/11/19 04:36:40;;;;;;;12.55;8.15;;;;;;;-3.10;76.94;99775.81;4985292;28;20054;-65
2022/11/19 04:39:07;;;;;;;10.18;7.90;;;;;;;-3.12;76.98;99783.38;4985335;28;20042;-67
2022/11/19 04:41:33;;;;;;;13.68;8.45;;;;;;;-3.06;77.03;99786.09;4985188;28;20054;-66
2022/11/19 04:43:59;;;;;;;13.40;8.23;;;;;;;-3.01;77.09;99794.69;4985295;28;20031;-65
2022/11/19 04:46:25;;;;;;;9.27;8.20;;;;;;;-3.00;76.96;99793.91;4985294;28;20026;-65
2022/11/19 04:48:51;;;;;;;12.00;8.32;;;;;;;-2.96;77.89;99787.28;4984057;28;20030;-66
2022/11/19 04:51:16;;;;;;;9.63;7.88;;;;;;;-2.96;77.15;99785.59;4996283;28;20330;-66
2022/11/19 04:53:42;;;;;;;10.60;8.60;;;;;;;-2.96;77.51;99777.16;4997741;28;20031;-67
2022/11/19 04:56:08;;;;;;;12.27;8.70;;;;;;;-2.92;76.91;99794.19;4984976;28;20242;-67
2022/11/19 04:58:34;;;;;;;11.25;7.95;;;;;;;-3.19;76.53;99792.41;4984857;28;20032;-65
2022/11/19 05:01:00;;;;;;;11.57;8.43;;;;;;;-3.11;77.23;99795.19;4984806;28;20053;-67
2022/11/19 05:03:26;;;;;;;12.60;8.48;;;;;;;-3.17;77.12;99795.00;4984872;28;20030;-66
2022/11/19 05:05:51;;;;;;;13.10;9.48;;;;;;;-3.07;77.53;99802.09;4984895;28;20027;-66
2022/11/19 05:08:17;;;;;;;11.45;8.65;;;;;;;-3.22;77.52;99804.97;4983970;28;20066;-67
2022/11/19 05:10:43;;;;;;;10.30;8.20;;;;;;;-3.06;77.94;99808.03;4984682;28;20029;-66
2022/11/19 05:13:09;;;;;;;11.93;7.68;;;;;;;-3.11;77.81;99790.13;4984638;28;20022;-66
2022/11/19 05:15:35;;;;;;;12.52;8.77;;;;;;;-2.93;77.64;99801.75;4997835;28;20033;-66
2022/11/19 05:18:01;;;;;;;10.68;8.65;;;;;;;-3.07;77.24;99781.84;4995246;28;20098;-66
2022/11/19 05:20:26;;;;;;;11.00;8.70;;;;;;;-2.99;77.74;99782.97;4984475;28;20027;-65
2022/11/19 05:22:53;;;;;;;13.73;8.85;;;;;;;-2.85;77.61;99790.16;4988482;28;20061;-65
2022/11/19 05:25:18;;;;;;;13.15;8.45;;;;;;;-2.87;77.29;99779.13;4984983;28;20066;-65
2022/11/19 05:27:44;;;;;;;12.25;8.88;;;;;;;-2.88;77.79;99782.47;4984377;28;20332;-65
2022/11/19 05:30:10;;;;;;;15.50;9.18;;;;;;;-2.87;77.42;99786.72;4984529;28;20373;-65
2022/11/19 05:32:36;;;;;;;11.63;9.02;;;;;;;-3.00;76.74;99800.66;4984049;28;20030;-66
2022/11/19 05:35:03;;;;;;;12.43;8.93;;;;;;;-2.97;77.45;99796.53;4984273;28;20074;-66
2022/11/19 05:37:29;;;;;;;12.25;9.30;;;;;;;-2.93;77.51;99784.00;4984265;28;20034;-66
2022/11/19 05:39:55;;;;;;;13.32;8.93;;;;;;;-3.01;77.64;99779.50;4984102;28;20054;-66
2022/11/19 05:42:20;;;;;;;12.48;9.13;;;;;;;-3.06;77.30;99787.78;4984549;28;20090;-66
2022/11/19 05:44:46;;;;;;;14.65;9.85;;;;;;;-3.06;77.31;99792.84;4984152;28;20203;-65
2022/11/19 05:47:13;;;;;;;11.88;9.13;;;;;;;-3.16;77.84;99796.72;4984208;28;20031;-66
2022/11/19 05:49:39;;;;;;;13.80;9.00;;;;;;;-3.11;78.50;99800.25;4984260;28;20026;-65
2022/11/19 05:52:04;;;;;;;14.55;9.93;;;;;;;-3.37;78.18;99797.66;4999941;28;20096;-65
2022/11/19 05:54:30;;;;;;;12.40;9.65;;;;;;;-3.24;78.56;99805.72;4983884;28;20066;-65
2022/11/19 05:56:56;;;;;;;14.13;8.95;;;;;;;-3.14;78.53;99805.22;4983947;28;20027;-66
2022/11/19 05:59:21;;;;;;;12.70;9.18;;;;;;;-3.12;78.65;99807.00;4983829;28;20030;-66
2022/11/19 06:01:47;;;;;;;12.38;8.73;;;;;;;-2.98;78.56;99806.63;4984030;28;20219;-65
2022/11/19 06:04:12;;;;;;;15.18;10.27;;;;;;;-3.08;78.43;99820.63;4983992;28;20033;-65
2022/11/19 06:06:38;;;;;;;14.02;9.38;;;;;;;-3.02;78.13;99822.53;4979544;28;20022;-66
2022/11/19 06:09:04;;;;;;;13.18;9.82;;;;;;;-2.89;78.72;99828.88;4974073;28;20043;-66
2022/11/19 06:11:48;;;;;;;14.27;9.25;;;;;;;-3.00;78.22;99824.31;4982750;28;20101;-66
2022/11/19 06:14:20;;;;;;;11.40;9.40;;;;;;;-3.03;78.37;99816.59;4985973;28;20054;-66
2022/11/19 06:16:51;;;;;;;11.57;9.43;;;;;;;-3.36;79.34;99813.72;5003060;28;20033;-66
2022/11/19 06:19:20;;;;;;;15.73;9.95;;;;;;;-3.38;79.82;99831.38;4986076;28;20031;-66
2022/11/19 06:21:47;;;;;;;12.35;9.35;;;;;;;-3.23;79.25;99822.63;4986639;28;20050;-66
2022/11/19 06:24:13;;;;;;;13.30;9.88;;;;;;;-3.23;79.33;99825.16;4993115;28;20023;-66
2022/11/19 06:26:39;;;;;;;14.57;9.80;;;;;;;-3.12;79.14;99814.59;4987589;28;20041;-65
2022/11/19 06:29:05;;;;;;;15.75;10.68;;;;;;;-2.98;79.91;99815.09;4987355;28;20283;-66
2022/11/19 06:31:32;;;;;;;13.65;9.80;;;;;;;-3.06;78.82;99819.03;4987603;28;20208;-66
2022/11/19 06:33:57;;;;;;;14.00;9.60;;;;;;;-3.07;78.78;99816.44;5003416;28;20026;-64
2022/11/19 06:36:24;;;;;;;11.93;9.95;;;;;;;-3.03;78.57;99814.06;4995799;28;20054;-65
2022/11/19 06:38:50;;;;;;;14.38;10.10;;;;;;;-3.15;79.04;99818.69;4987627;28;20023;-65
2022/11/19 06:41:15;;;;;;;13.35;9.80;;;;;;;-3.04;78.75;99819.94;4987442;28;20031;-65
2022/11/19 06:43:42;;;;;;;14.02;10.13;;;;;;;-3.00;79.21;99823.44;4987462;28;20106;-65
2022/11/19 06:46:08;;;;;;;17.92;12.82;;;;;;;-3.01;78.35;99809.06;4987423;28;20046;-64
2022/11/19 06:48:34;;;;;;;11.48;8.88;;;;;;;-3.17;79.05;99831.28;4987394;28;20094;-65
2022/11/19 06:51:00;;;;;;;13.65;9.65;;;;;;;-3.22;79.29;99831.94;4987019;28;20073;-64
2022/11/19 06:53:26;;;;;;;12.00;10.07;;;;;;;-3.11;78.67;99830.66;4990522;28;20034;-64
2022/11/19 06:56:00;;;;;;;15.25;9.55;;;;;;;-3.04;79.52;99827.53;5006879;28;20064;-66
2022/11/19 06:58:26;;;;;;;14.00;9.98;;;;;;;-3.14;78.93;99840.69;4987137;28;20029;-66
2022/11/19 07:00:51;;;;;;;13.57;9.65;;;;;;;-3.14;78.95;99833.09;4989460;28;20034;-65
2022/11/19 07:03:17;;;;;;;12.77;9.13;;;;;;;-3.26;79.45;99846.16;4986948;28;20039;-66
2022/11/19 07:05:43;;;;;;;14.60;10.25;;;;;;;-3.21;79.59;99854.78;4986114;28;20046;-67
2022/11/19 07:08:08;;;;;;;12.40;9.90;;;;;;;-3.21;79.15;99864.06;4969652;28;20031;-66
2022/11/19 07:10:34;;;;;;;15.52;10.88;;;;;;;-3.23;79.19;99871.59;4977129;28;20211;-66
2022/11/19 07:13:00;;;;;;;14.50;9.95;;;;;;;-3.25;79.69;99868.16;4996102;28;20026;-66
2022/11/19 07:15:26;;;;;;;13.27;9.65;;;;;;;-3.26;79.70;99865.53;4996017;28;20020;-66
2022/11/19 07:17:51;;;;;;;13.48;10.27;;;;;;;-3.23;80.27;99858.09;4991702;28;20027;-65
2022/11/19 07:20:17;;;;;;;14.90;10.38;;;;;;;-3.23;79.98;99884.25;4986574;28;20111;-67
2022/11/19 07:22:43;;;;;;;15.45;11.05;;;;;;;-3.11;79.25;99878.78;4989785;28;20028;-66
2022/11/19 07:25:12;;;;;;;12.35;10.25;;;;;;;-2.97;80.21;99872.53;4988516;28;20019;-65
2022/11/19 07:27:40;;;;;;;13.98;10.20;;;;;;;-2.89;79.49;99900.72;4986370;28;20386;-65
2022/11/19 07:30:06;;;;;;;13.30;9.82;;;;;;;-3.14;80.49;99896.41;4986180;28;20043;-66
2022/11/19 07:32:32;;;;;;;13.27;8.63;;;;;;;-3.01;79.42;99906.16;4985941;28;20319;-66
2022/11/19 07:34:58;;;;;;;11.55;9.30;;;;;;;-3.04;79.95;99906.06;4986296;28;20035;-65
2022/11/19 07:37:24;;;;;;;14.95;9.50;;;;;;;-3.39;80.64;99897.13;4986409;28;20323;-66
2022/11/19 07:39:50;;;;;;;12.90;8.90;;;;;;;-3.44;81.39;99913.84;4986250;28;20038;-65
2022/11/19 07:44:59;;;;;;;13.63;9.85;;;;;;;-3.12;80.72;99931.13;4986235;28;20063;-65
2022/11/19 07:47:25;;;;;;;13.18;9.93;;;;;;;-3.01;80.48;99931.50;4986053;28;20089;-64
2022/11/19 07:49:50;;;;;;;14.63;10.07;;;;;;;-3.09;80.71;99940.50;4986287;28;20038;-65
2022/11/19 07:52:16;;;;;;;13.15;9.43;;;;;;;-3.03;80.56;99939.88;4986095;28;20070;-64
2022/11/19 07:54:42;;;;;;;14.05;8.93;;;;;;;-3.07;80.23;99938.03;4986135;28;20164;-65
2022/11/19 07:57:08;;;;;;;13.52;10.32;;;;;;;-2.98;80.32;99936.72;4985871;28;20049;-65
2022/11/19 07:59:33;;;;;;;13.20;9.45;;;;;;;-3.01;80.86;99939.09;4985946;28;20027;-64
2022/11/19 08:01:59;;;;;;;10.98;8.77;;;;;;;-3.14;81.16;99935.25;4986217;28;20041;-64
2022/11/19 08:04:27;;;;;;;10.90;8.27;;;;;;;-3.10;80.54;99923.56;4984701;28;20030;-65
2022/11/19 08:06:53;;;;;;;11.18;8.48;;;;;;;-3.00;81.17;99940.84;4975702;28;20369;-65
2022/11/19 08:09:19;;;;;;;10.70;7.78;;;;;;;-3.22;81.57;99925.63;4978382;28;20066;-64
2022/11/19 08:11:44;;;;;;;11.40;9.18;;;;;;;-3.04;81.13;99939.00;4984498;28;20342;-65
2022/11/19 08:14:11;;;;;;;11.65;8.93;;;;;;;-3.11;81.88;99937.03;4986043;28;20045;-65
2022/11/19 08:19:21;;;;;;;9.13;7.65;;;;;;;-2.77;81.21;99948.41;4985316;28;20046;-66
2022/11/19 08:21:47;;;;;;;12.07;8.80;;;;;;;-3.03;81.88;99940.72;4983944;28;20204;-66
2022/11/19 08:24:14;;;;;;;12.68;9.15;;;;;;;-2.79;81.24;99934.84;4991442;28;20038;-65
2022/11/19 08:26:40;;;;;;;11.30;8.35;;;;;;;-2.87;80.90;99936.22;4985399;28;20197;-66
2022/11/19 08:29:06;;;;;;;12.15;9.38;;;;;;;-2.71;80.73;99930.91;4985252;28;20035;-65
2022/11/19 08:31:32;;;;;;;12.07;8.65;;;;;;;-2.64;80.97;99932.88;4984988;28;20031;-66
2022/11/19 08:34:00;;;;;;;12.30;8.68;;;;;;;-2.69;80.46;99941.97;4985267;28;20338;-65
2022/11/19 08:36:26;;;;;;;11.02;8.55;;;;;;;-2.60;81.54;99916.94;4985150;28;20292;-66
2022/11/19 08:38:51;;;;;;;10.05;8.32;;;;;;;-2.67;80.72;99917.53;4985106;28;20074;-66
2022/11/19 08:44:02;;;;;;;10.77;8.77;;;;;;;-2.71;81.05;99885.28;4992977;28;20031;-65
2022/11/19 08:46:28;;;;;;;10.90;9.50;;;;;;;-2.54;80.48;99900.22;4993522;28;20366;-67
2022/11/19 08:48:53;;;;;;;12.30;9.60;;;;;;;-2.63;80.78;99911.75;4987095;28;20042;-66
2022/11/19 08:51:19;;;;;;;11.38;9.27;;;;;;;-2.70;80.55;99914.88;4994187;28;20104;-66
2022/11/19 08:53:45;;;;;;;14.30;9.57;;;;;;;-2.60;80.53;99913.53;4999705;28;20035;-64
2022/11/19 08:56:11;;;;;;;14.43;9.77;;;;;;;-2.34;80.37;99916.97;4984914;28;20018;-66
2022/11/19 08:58:36;;;;;;;11.60;9.48;;;;;;;-2.37;80.20;99913.47;4985028;28;20027;-66
2022/11/19 09:01:10;;;;;;;11.60;9.35;;;;;;;-2.41;80.20;99915.03;4984743;28;20326;-66
2022/11/19 09:03:37;;;;;;;10.98;9.32;;;;;;;-2.53;81.01;99917.16;4984919;28;20026;-65
2022/11/19 09:06:03;;;;;;;13.00;8.60;;;;;;;-2.64;81.04;99917.66;4967291;28;20070;-65
2022/11/19 09:08:29;;;;;;;13.55;10.07;;;;;;;-2.51;80.64;99915.53;4984871;28;20019;-66
2022/11/19 09:10:55;;;;;;;12.60;10.63;;;;;;;-2.36;80.18;99911.00;4984568;28;20031;-65
2022/11/19 09:13:20;;;;;;;14.20;9.90;;;;;;;-2.31;80.45;99906.97;4984665;28;20046;-65
2022/11/19 09:15:49;;;;;;;12.73;10.40;;;;;;;-2.25;80.21;99903.75;4984312;28;20027;-69
2022/11/19 09:18:15;;;;;;;12.93;9.60;;;;;;;-2.31;80.12;99911.16;4983292;28;20030;-65
2022/11/19 09:20:41;;;;;;;14.60;9.18;;;;;;;-2.40;80.10;99914.22;4984474;28;20077;-65
2022/11/19 09:23:06;;;;;;;13.35;9.60;;;;;;;-2.54;80.94;99916.28;4990485;28;20085;-65
2022/11/19 09:25:32;;;;;;;12.40;9.75;;;;;;;-2.51;80.85;99915.53;4984172;28;20034;-64
2022/11/19 09:27:58;;;;;;;11.15;9.15;;;;;;;-2.57;81.35;99917.88;4984580;28;20042;-64
2022/11/19 09:30:24;;;;;;;11.50;9.63;;;;;;;-2.52;80.62;99927.34;4984781;28;20037;-66
2022/11/19 09:32:50;;;;;;;11.93;8.98;;;;;;;-2.51;80.71;99926.56;4984315;28;20058;-65
2022/11/19 09:35:16;;;;;;;15.32;10.30;;;;;;;-2.43;80.99;99929.34;4984617;28;20275;-65
2022/11/19 09:37:41;;;;;;;12.80;10.10;;;;;;;-2.17;80.48;99926.84;4983157;28;20030;-65
2022/11/19 09:40:09;;;;;;;12.88;9.55;;;;;;;-2.35;80.49;99943.16;4983193;28;20035;-65
2022/11/19 09:42:57;;;;;;;11.93;8.75;;;;;;;-2.81;81.09;99941.50;4984103;28;20323;-65
2022/11/19 09:45:51;;;;;;;13.75;10.07;;;;;;;-2.55;81.79;99939.94;4984500;28;20037;-65
2022/11/19 09:48:34;;;;;;;11.98;9.32;;;;;;;-2.52;81.42;99942.56;4984381;28;20314;-65
2022/11/19 09:51:11;;;;;;;15.45;10.75;;;;;;;-2.68;81.31;99923.44;4983798;28;20062;-66
2022/11/19 09:53:58;;;;;;;12.98;9.73;;;;;;;-2.35;80.87;99957.50;4983633;28;20046;-64
2022/11/19 09:56:53;;;;;;;13.43;9.50;;;;;;;-2.49;81.14;99940.13;4984132;28;20050;-63
2022/11/19 09:59:40;;;;;;;12.07;8.77;;;;;;;-2.55;80.89;99955.16;4983713;28;20030;-63
2022/11/19 10:02:16;;;;;;;13.68;9.43;;;;;;;-2.49;80.94;99937.59;4968062;28;20045;-64
2022/11/19 10:04:42;;;;;;;12.95;9.52;;;;;;;-2.57;81.54;99955.91;4965072;28;20366;-65
2022/11/19 10:07:31;;;;;;;12.95;8.70;;;;;;;-2.70;81.77;99955.44;4982983;28;20031;-64
2022/11/19 10:10:10;;;;;;;11.88;9.05;;;;;;;-2.65;81.84;99943.81;4983701;28;20030;-64
2022/11/19 10:12:55;;;;;;;11.65;9.73;;;;;;;-2.51;81.99;99951.03;4984099;28;20074;-65
2022/11/19 10:15:49;;;;;;;12.93;9.55;;;;;;;-2.55;81.49;99946.66;4983560;28;20343;-64
2022/11/19 10:18:24;;;;;;;10.65;8.77;;;;;;;-2.71;81.57;99942.72;4983749;28;20049;-66
2022/11/19 10:21:08;;;;;;;13.15;7.97;;;;;;;-2.74;82.38;99942.59;4983444;28;20278;-65
2022/11/19 10:23:42;;;;;;;15.60;10.43;;;;;;;-2.51;82.04;99931.63;4983639;28;20043;-65
2022/11/19 10:26:17;;;;;;;13.40;10.18;;;;;;;-2.75;82.10;99918.06;4984085;28;20035;-65
2022/11/19 10:28:52;;;;;;;13.40;10.07;;;;;;;-2.68;81.76;99905.69;4964467;28;20027;-65
2022/11/19 10:31:49;;;;;;;12.60;9.77;;;;;;;-2.63;82.22;99926.97;4997126;28;20030;-64
2022/11/19 10:34:26;;;;;;;12.63;10.18;;;;;;;-2.56;81.96;99919.59;4983046;28;20102;-65
2022/11/19 10:37:07;;;;;;;14.48;10.80;;;;;;;-2.51;81.80;99918.06;4983478;28;20091;-65
2022/11/19 10:40:01;;;;;;;15.40;10.17;;;;;;;-2.51;81.74;99924.03;4983353;28;20031;-65
2022/11/19 10:42:33;;;;;;;14.13;10.93;;;;;;;-2.50;81.43;99904.59;4983133;28;20073;-65
2022/11/19 10:45:05;;;;;;;14.63;10.77;;;;;;;-2.53;82.03;99924.78;4983274;28;20026;-64
2022/11/19 10:47:43;;;;;;;21.85;11.60;;;;;;;-2.49;82.09;99913.94;4979578;28;20027;-65
2022/11/19 10:50:20;;;;;;;14.38;11.15;;;;;;;-2.62;82.78;99900.81;4980268;28;20046;-65
2022/11/19 10:53:12;;;;;;;15.02;11.27;;;;;;;-2.39;82.48;99898.22;4981292;28;20106;-65
2022/11/19 10:55:42;;;;;;;16.02;11.27;;;;;;;-2.46;81.50;99879.38;4981479;28;20046;-65
2022/11/19 10:58:38;;;;;;;16.88;11.07;;;;;;;-2.66;82.24;99896.44;4981204;28;20101;-65
2022/11/19 11:01:27;;;;;;;16.02;11.10;;;;;;;-2.68;82.00;99903.16;4980489;28;20034;-64
2022/11/19 11:04:19;;;;;;;17.48;11.77;;;;;;;-2.50;82.73;99886.84;4994846;28;20023;-65
2022/11/19 11:06:51;;;;;;;;;;;;;;;-2.69;83.15;99873.53;4984145;28;20065;-68
2022/11/19 11:09:46;;;;;;;15.65;10.93;;;;;;;-2.72;82.94;99870.00;4985245;28;20195;-64
2022/11/19 11:15:14;;;;;;;17.48;11.68;;;;;;;-2.57;83.74;99864.63;4983477;28;20086;-65
2022/11/19 11:17:41;;;;;;;21.58;11.63;;;;;;;-2.41;83.65;99860.94;4984985;28;20279;-65
2022/11/19 11:20:25;;;;;;;18.23;11.70;;;;;;;-2.52;82.92;99847.88;4986689;28;20363;-65
2022/11/19 11:23:08;;;;;;;15.80;11.10;;;;;;;-2.47;82.59;99836.25;5008714;28;20042;-64
2022/11/19 11:25:34;;;;;;;14.20;10.65;;;;;;;-2.55;82.56;99863.00;4988106;28;20026;-64
2022/11/19 11:28:15;;;;;;;16.17;11.70;;;;;;;-2.52;82.90;99842.81;4984413;28;20088;-65
2022/11/19 11:30:52;;;;;;;15.68;10.90;;;;;;;-2.37;82.63;99861.09;4984095;28;20038;-65
2022/11/19 11:33:23;;;;;;;13.57;9.93;;;;;;;-2.53;83.15;99872.38;5000980;28;20039;-65
2022/11/19 11:35:50;;;;;;;;;;;;;;;-2.52;83.16;99861.44;4990269;28;20018;-65
2022/11/19 11:38:20;;;;;;;13.52;10.43;;;;;;;-2.62;83.38;99854.34;4988878;28;19913;-66
2022/11/19 11:41:03;;;;;;;12.20;10.07;;;;;;;-2.50;82.69;99864.03;4966776;28;20050;-65
2022/11/19 11:43:31;;;;;;;10.32;7.63;;;;;;;-2.69;83.16;99872.69;4983806;28;20034;-65
2022/11/19 11:46:03;;;;;;;11.85;8.90;;;;;;;-2.78;83.58;99855.47;4985953;28;20070;-64
2022/11/19 11:48:35;;;;;;;13.15;9.32;;;;;;;-2.67;84.19;99868.50;4974856;28;20198;-66
2022/11/19 11:51:02;;;;;;;13.52;10.23;;;;;;;-2.56;83.51;99852.00;4984723;28;20066;-65
2022/11/19 11:53:31;;;;;;;11.25;8.65;;;;;;;-2.78;83.18;99840.25;4985833;28;20349;-65
2022/11/19 11:56:02;;;;;;;10.23;8.80;;;;;;;-2.72;83.88;99822.75;4967722;28;20028;-65
2022/11/19 11:58:32;;;;;;;11.83;9.40;;;;;;;-2.61;83.57;99844.25;4985681;28;20113;-64
2022/11/19 12:01:18;;;;;;;10.55;9.43;;;;;;;-2.65;83.51;99847.47;4985941;28;20417;-64